Time;durP1;ratioP1;P1;durP2;ratioP2;P2;SDS_P1;SDS_P2;PMS_P1;PMS_P2;Temp;Humidity;BMP_temperature;BMP_pressure;BME280_temperature;BME280_humidity;BME280_pressure;Samples;Min_cycle;Max_cycle;Signal;HPM_P1;HPM_P2
2021/10/23 00:00:56;;;;;;;16.90;5.50;;;;;;;;;;5093778;28;20198;-71
2021/10/23 00:03:24;;;;;;;15.48;6.07;;;;;;;;;;5093721;28;20200;-71
2021/10/23 00:05:51;;;;;;;14.45;6.32;;;;;;;;;;5094368;28;20192;-71
2021/10/23 00:08:18;;;;;;;12.15;6.63;;;;;;;;;;5093569;28;20238;-71
2021/10/23 00:10:46;;;;;;;21.67;6.63;;;;;;;;;;5093993;28;20201;-71
2021/10/23 00:13:13;;;;;;;18.13;6.93;;;;;;;;;;5094161;28;20561;-71
2021/10/23 00:15:40;;;;;;;14.45;6.15;;;;;;;;;;5093922;28;20206;-70
2021/10/23 00:18:07;;;;;;;21.25;6.97;;;;;;;;;;5093910;28;20200;-71
2021/10/23 00:20:36;;;;;;;14.20;6.65;;;;;;;;;;5093839;28;20278;-71
2021/10/23 00:23:03;;;;;;;8.18;6.50;;;;;;;;;;5093501;28;20201;-70
2021/10/23 00:25:30;;;;;;;21.10;6.93;;;;;;;;;;5093954;28;20557;-71
2021/10/23 00:27:57;;;;;;;10.85;6.22;;;;;;;;;;5093981;28;20217;-71
2021/10/23 00:30:25;;;;;;;13.77;6.28;;;;;;;;;;5093835;28;20217;-71
2021/10/23 00:32:54;;;;;;;17.75;7.13;;;;;;;;;;5093651;28;20202;-71
2021/10/23 00:35:22;;;;;;;14.23;8.15;;;;;;;;;;5093360;28;20687;-71
2021/10/23 00:37:50;;;;;;;17.00;6.68;;;;;;;;;;5093883;28;20239;-71
2021/10/23 00:40:17;;;;;;;15.70;7.55;;;;;;;;;;5093669;28;20201;-71
2021/10/23 00:42:44;;;;;;;14.48;6.90;;;;;;;;;;5094132;28;20198;-71
2021/10/23 00:45:12;;;;;;;12.23;6.95;;;;;;;;;;5093606;28;20624;-72
2021/10/23 00:47:39;;;;;;;17.20;7.35;;;;;;;;;;5093525;28;20218;-71
2021/10/23 00:50:07;;;;;;;11.88;6.72;;;;;;;;;;5093927;28;20703;-71
2021/10/23 00:52:36;;;;;;;16.08;6.93;;;;;;;;;;5093553;28;20569;-71
2021/10/23 00:55:04;;;;;;;21.05;8.45;;;;;;;;;;5093487;28;20202;-71
2021/10/23 00:57:32;;;;;;;19.23;8.45;;;;;;;;;;5093117;28;20203;-72
2021/10/23 00:59:59;;;;;;;22.15;7.90;;;;;;;;;;5096543;28;20202;-72
2021/10/23 01:02:26;;;;;;;14.23;8.10;;;;;;;;;;5097168;28;20199;-72
2021/10/23 01:04:53;;;;;;;17.88;7.95;;;;;;;;;;5097004;28;20668;-72
2021/10/23 01:07:20;;;;;;;18.23;7.93;;;;;;;;;;5097300;28;20236;-72
2021/10/23 01:09:48;;;;;;;18.90;7.10;;;;;;;;;;5098050;28;20184;-71
2021/10/23 01:12:16;;;;;;;12.48;6.70;;;;;;;;;;5097629;28;20196;-72
2021/10/23 01:14:45;;;;;;;10.05;7.25;;;;;;;;;;5097262;28;20375;-72
2021/10/23 01:17:12;;;;;;;19.40;8.10;;;;;;;;;;5097432;28;20235;-72
2021/10/23 01:19:39;;;;;;;17.45;7.53;;;;;;;;;;5097152;28;20222;-72
2021/10/23 01:22:08;;;;;;;20.33;7.57;;;;;;;;;;5097095;28;20192;-71
2021/10/23 01:24:35;;;;;;;12.00;7.45;;;;;;;;;;5097527;28;20196;-72
2021/10/23 01:27:02;;;;;;;14.70;6.78;;;;;;;;;;5096688;28;20198;-73
2021/10/23 01:29:29;;;;;;;15.00;7.50;;;;;;;;;;5096983;28;20196;-72
2021/10/23 01:31:57;;;;;;;12.00;8.10;;;;;;;;;;5097267;28;20215;-72
2021/10/23 01:34:25;;;;;;;15.27;8.02;;;;;;;;;;5097053;28;20193;-72
2021/10/23 01:36:53;;;;;;;18.27;7.75;;;;;;;;;;5096838;28;20194;-72
2021/10/23 01:39:23;;;;;;;19.23;7.65;;;;;;;;;;5097012;28;20202;-72
2021/10/23 01:41:51;;;;;;;13.90;8.93;;;;;;;;;;5096995;28;20209;-73
2021/10/23 01:44:18;;;;;;;18.20;8.15;;;;;;;;;;5096694;28;20208;-72
2021/10/23 01:46:46;;;;;;;27.27;10.35;;;;;;;;;;5096350;28;20199;-73
2021/10/23 01:49:13;;;;;;;22.05;7.95;;;;;;;;;;5096242;28;20227;-72
2021/10/23 01:51:40;;;;;;;24.20;8.85;;;;;;;;;;5096238;28;20658;-72
2021/10/23 01:54:08;;;;;;;24.02;10.50;;;;;;;;;;5096541;28;20196;-72
2021/10/23 01:56:38;;;;;;;20.35;10.20;;;;;;;;;;5096491;28;20557;-73
2021/10/23 01:59:06;;;;;;;15.80;10.13;;;;;;;;;;5096198;28;20188;-73
2021/10/23 02:01:33;;;;;;;18.17;9.73;;;;;;;;;;5096043;28;20206;-73
2021/10/23 02:04:00;;;;;;;29.70;11.38;;;;;;;;;;5096916;28;20231;-73
2021/10/23 02:06:28;;;;;;;20.10;11.10;;;;;;;;;;5096013;28;20201;-72
2021/10/23 02:08:55;;;;;;;25.90;9.80;;;;;;;;;;5096466;28;20243;-72
2021/10/23 02:11:22;;;;;;;13.75;10.15;;;;;;;;;;5094882;28;20194;-71
2021/10/23 02:13:51;;;;;;;21.75;10.02;;;;;;;;;;5096104;28;20554;-71
2021/10/23 02:16:18;;;;;;;17.00;10.43;;;;;;;;;;5096779;28;20207;-72
2021/10/23 02:18:45;;;;;;;15.70;10.55;;;;;;;;;;5096076;28;20193;-71
2021/10/23 02:21:13;;;;;;;18.83;10.98;;;;;;;;;;5096163;28;20202;-72
2021/10/23 02:23:40;;;;;;;26.42;11.68;;;;;;;;;;5095650;28;20801;-72
2021/10/23 02:26:07;;;;;;;27.88;12.05;;;;;;;;;;5095890;28;20201;-72
2021/10/23 02:28:35;;;;;;;19.20;10.95;;;;;;;;;;5095760;28;20223;-73
2021/10/23 02:31:03;;;;;;;17.40;10.80;;;;;;;;;;5095514;28;20193;-72
2021/10/23 02:33:31;;;;;;;23.23;11.57;;;;;;;;;;5095684;28;20194;-72
2021/10/23 02:35:58;;;;;;;25.25;12.00;;;;;;;;;;5095926;28;20203;-72
2021/10/23 02:38:26;;;;;;;25.83;13.27;;;;;;;;;;5096110;28;20234;-71
2021/10/23 02:40:53;;;;;;;22.48;12.52;;;;;;;;;;5095310;28;20231;-72
2021/10/23 02:43:20;;;;;;;27.48;11.57;;;;;;;;;;5095621;28;20202;-71
2021/10/23 02:45:47;;;;;;;18.48;13.05;;;;;;;;;;5095207;28;20193;-72
2021/10/23 02:48:16;;;;;;;22.42;14.30;;;;;;;;;;5095385;28;20580;-72
2021/10/23 02:50:43;;;;;;;20.42;12.13;;;;;;;;;;5096031;28;20287;-73
2021/10/23 02:53:11;;;;;;;23.83;13.95;;;;;;;;;;5095382;28;20201;-72
2021/10/23 02:55:38;;;;;;;24.48;13.98;;;;;;;;;;5095166;28;20712;-72
2021/10/23 02:58:06;;;;;;;26.35;13.43;;;;;;;;;;5094976;28;20295;-73
2021/10/23 03:00:33;;;;;;;27.17;14.95;;;;;;;;;;5094937;28;20240;-72
2021/10/23 03:03:00;;;;;;;32.78;14.70;;;;;;;;;;5094980;28;20298;-73
2021/10/23 03:05:29;;;;;;;30.48;15.05;;;;;;;;;;5095237;28;20192;-73
2021/10/23 03:07:56;;;;;;;31.10;16.65;;;;;;;;;;5094736;28;20224;-72
2021/10/23 03:10:23;;;;;;;29.30;15.45;;;;;;;;;;5095249;28;20201;-71
2021/10/23 03:12:50;;;;;;;27.48;14.50;;;;;;;;;;5094914;28;20190;-72
2021/10/23 03:15:17;;;;;;;24.65;14.15;;;;;;;;;;5095030;28;20286;-73
2021/10/23 03:17:45;;;;;;;26.27;15.00;;;;;;;;;;5094926;28;20294;-72
2021/10/23 03:20:13;;;;;;;23.75;14.93;;;;;;;;;;5094580;28;20650;-72
2021/10/23 03:22:43;;;;;;;26.65;15.88;;;;;;;;;;5094387;28;20653;-73
2021/10/23 03:25:10;;;;;;;24.10;15.65;;;;;;;;;;5095163;28;20189;-74
2021/10/23 03:27:38;;;;;;;20.65;14.27;;;;;;;;;;5094622;28;20288;-73
2021/10/23 03:30:06;;;;;;;21.08;14.10;;;;;;;;;;5094672;28;20230;-74
2021/10/23 03:32:33;;;;;;;21.10;13.85;;;;;;;;;;5095077;28;20207;-73
2021/10/23 03:35:01;;;;;;;26.92;14.68;;;;;;;;;;5094540;28;20199;-73
2021/10/23 03:37:28;;;;;;;20.30;14.70;;;;;;;;;;5095027;28;20291;-74
2021/10/23 03:39:57;;;;;;;22.25;14.13;;;;;;;;;;5094178;28;20216;-73
2021/10/23 03:42:24;;;;;;;28.13;16.30;;;;;;;;;;5094929;28;20197;-73
2021/10/23 03:44:51;;;;;;;25.48;15.00;;;;;;;;;;5094430;28;20193;-73
2021/10/23 03:47:19;;;;;;;29.48;15.20;;;;;;;;;;5094053;28;20199;-73
2021/10/23 03:49:46;;;;;;;22.52;16.63;;;;;;;;;;5094267;28;20312;-73
2021/10/23 03:52:15;;;;;;;21.23;15.75;;;;;;;;;;5094293;28;20288;-72
2021/10/23 03:54:42;;;;;;;22.00;16.13;;;;;;;;;;5095084;28;20204;-73
2021/10/23 03:57:11;;;;;;;38.35;18.25;;;;;;;;;;5094220;28;20202;-73
2021/10/23 03:59:38;;;;;;;32.40;19.17;;;;;;;;;;5093747;28;20200;-72
2021/10/23 04:02:06;;;;;;;33.25;17.85;;;;;;;;;;5093553;28;20203;-73
2021/10/23 04:04:33;;;;;;;32.95;17.73;;;;;;;;;;5094369;28;20191;-73
2021/10/23 04:07:00;;;;;;;25.90;16.77;;;;;;;;;;5094301;28;20557;-72
2021/10/23 04:09:28;;;;;;;25.92;17.20;;;;;;;;;;5093780;28;20658;-73
2021/10/23 04:11:55;;;;;;;33.45;19.00;;;;;;;;;;5094553;28;20207;-72
2021/10/23 04:14:23;;;;;;;29.83;19.00;;;;;;;;;;5093632;28;20200;-73
2021/10/23 04:16:51;;;;;;;37.10;19.90;;;;;;;;;;5093970;28;20552;-71
2021/10/23 04:19:18;;;;;;;26.77;19.00;;;;;;;;;;5093830;28;20205;-72
2021/10/23 04:21:45;;;;;;;38.20;20.60;;;;;;;;;;5094455;28;20554;-72
2021/10/23 04:24:12;;;;;;;33.85;19.02;;;;;;;;;;5093769;28;20193;-71
2021/10/23 04:26:40;;;;;;;38.30;19.55;;;;;;;;;;5093430;28;20193;-71
2021/10/23 04:29:07;;;;;;;35.95;22.52;;;;;;;;;;5093225;28;20224;-70
2021/10/23 04:31:36;;;;;;;32.80;17.63;;;;;;;;;;5093789;28;20550;-70
2021/10/23 04:34:03;;;;;;;33.38;19.75;;;;;;;;;;5093554;28;20203;-71
2021/10/23 04:36:31;;;;;;;31.02;20.00;;;;;;;;;;5072824;28;20207;-71
2021/10/23 04:38:58;;;;;;;36.63;21.35;;;;;;;;;;5073161;28;20205;-70
2021/10/23 04:41:25;;;;;;;32.45;19.70;;;;;;;;;;5073003;28;20201;-71
2021/10/23 04:43:52;;;;;;;34.55;20.02;;;;;;;;;;5072520;28;20673;-70
2021/10/23 04:46:19;;;;;;;29.02;18.33;;;;;;;;;;5072887;28;20529;-71
2021/10/23 04:48:48;;;;;;;37.90;20.10;;;;;;;;;;5072822;28;20221;-72
2021/10/23 04:51:15;;;;;;;34.20;19.90;;;;;;;;;;5072723;28;20197;-70
2021/10/23 04:53:42;;;;;;;31.88;21.30;;;;;;;;;;5072740;28;20653;-70
2021/10/23 04:56:10;;;;;;;32.22;18.85;;;;;;;;;;5072895;28;20193;-70
2021/10/23 04:58:38;;;;;;;33.67;19.67;;;;;;;;;;5073266;28;20212;-71
2021/10/23 05:01:05;;;;;;;32.78;19.63;;;;;;;;;;5072855;28;20250;-71
2021/10/23 05:03:33;;;;;;;31.83;19.90;;;;;;;;;;5073121;28;20192;-71
2021/10/23 05:06:01;;;;;;;28.27;19.40;;;;;;;;;;5073339;28;20202;-71
2021/10/23 05:08:29;;;;;;;30.83;18.23;;;;;;;;;;5073468;28;20231;-71
2021/10/23 05:10:56;;;;;;;30.05;19.30;;;;;;;;;;5073113;28;20290;-72
2021/10/23 05:13:23;;;;;;;30.20;19.58;;;;;;;;;;5073095;28;20199;-71
2021/10/23 05:15:50;;;;;;;27.15;19.40;;;;;;;;;;5072630;28;20292;-71
2021/10/23 05:18:17;;;;;;;34.63;19.75;;;;;;;;;;5073073;28;20200;-71
2021/10/23 05:20:45;;;;;;;24.65;17.33;;;;;;;;;;5073079;28;20193;-71
2021/10/23 05:23:13;;;;;;;29.38;19.45;;;;;;;;;;5073224;28;20254;-72
2021/10/23 05:25:40;;;;;;;27.50;19.05;;;;;;;;;;5072607;28;20208;-75
2021/10/23 05:28:07;;;;;;;29.73;20.80;;;;;;;;;;5072823;28;20205;-75
2021/10/23 05:30:35;;;;;;;36.05;18.90;;;;;;;;;;5073136;28;20647;-77
2021/10/23 05:33:02;;;;;;;24.30;17.70;;;;;;;;;;5072952;28;20193;-75
2021/10/23 05:35:29;;;;;;;33.50;19.13;;;;;;;;;;5072283;28;20190;-75
2021/10/23 05:37:56;;;;;;;32.50;20.90;;;;;;;;;;5072902;28;20196;-76
2021/10/23 05:40:25;;;;;;;23.77;17.85;;;;;;;;;;5072840;28;20212;-77
2021/10/23 05:42:52;;;;;;;27.98;18.52;;;;;;;;;;5072803;28;20289;-77
2021/10/23 05:45:19;;;;;;;31.05;20.20;;;;;;;;;;5073349;28;20203;-77
2021/10/23 05:47:47;;;;;;;34.63;20.83;;;;;;;;;;5076258;28;20193;-76
2021/10/23 05:50:14;;;;;;;26.30;19.48;;;;;;;;;;5076460;28;20307;-76
2021/10/23 05:52:41;;;;;;;32.63;19.58;;;;;;;;;;5076805;28;20595;-76
2021/10/23 05:55:09;;;;;;;26.40;20.48;;;;;;;;;;5075808;28;20304;-75
2021/10/23 05:57:37;;;;;;;26.27;20.15;;;;;;;;;;5076111;28;20200;-75
2021/10/23 06:00:07;;;;;;;26.33;16.88;;;;;;;;;;5075966;28;20212;-75
2021/10/23 06:02:34;;;;;;;31.77;20.80;;;;;;;;;;5075749;28;20231;-75
2021/10/23 06:05:02;;;;;;;30.40;18.73;;;;;;;;;;5076252;28;20196;-76
2021/10/23 06:07:31;;;;;;;61.58;24.98;;;;;;;;;;5075466;28;20221;-76
2021/10/23 06:10:00;;;;;;;34.67;20.00;;;;;;;;;;5075893;28;20573;-76
2021/10/23 06:12:27;;;;;;;42.15;22.02;;;;;;;;;;5075826;28;20281;-77
2021/10/23 06:14:56;;;;;;;33.20;19.23;;;;;;;;;;5075373;28;20232;-77
2021/10/23 06:17:23;;;;;;;28.65;19.02;;;;;;;;;;5075681;28;20197;-77
2021/10/23 06:19:51;;;;;;;43.92;20.40;;;;;;;;;;5075930;28;20196;-77
2021/10/23 06:22:18;;;;;;;41.85;19.88;;;;;;;;;;5075705;28;20193;-75
2021/10/23 06:24:45;;;;;;;34.88;20.13;;;;;;;;;;5075619;28;20198;-76
2021/10/23 06:27:13;;;;;;;22.27;17.40;;;;;;;;;;5075579;28;20199;-76
2021/10/23 06:29:40;;;;;;;35.15;20.42;;;;;;;;;;5076011;28;20223;-77
2021/10/23 06:32:09;;;;;;;30.90;19.58;;;;;;;;;;5075197;28;20663;-77
2021/10/23 06:34:40;;;;;;;45.60;19.63;;;;;;;;;;5075082;28;20665;-77
2021/10/23 06:37:07;;;;;;;24.52;17.70;;;;;;;;;;5075559;28;20311;-76
2021/10/23 06:39:35;;;;;;;33.70;18.63;;;;;;;;;;5074910;28;20233;-77
2021/10/23 06:42:02;;;;;;;26.85;17.83;;;;;;;;;;5075141;28;20713;-77
2021/10/23 06:44:29;;;;;;;36.03;20.00;;;;;;;;;;5075151;28;20199;-78
2021/10/23 06:46:56;;;;;;;42.38;20.05;;;;;;;;;;5074732;28;20201;-77
2021/10/23 06:49:25;;;;;;;23.25;18.83;;;;;;;;;;5075074;28;20260;-77
2021/10/23 06:51:52;;;;;;;24.95;16.73;;;;;;;;;;5074733;28;20705;-77
2021/10/23 06:54:19;;;;;;;51.80;20.63;;;;;;;;;;5075044;28;20260;-77
2021/10/23 06:56:53;;;;;;;30.52;18.50;;;;;;;;;;5074624;28;20296;-76
2021/10/23 06:59:20;;;;;;;35.72;22.35;;;;;;;;;;5075809;28;20242;-77
2021/10/23 07:01:47;;;;;;;32.10;18.77;;;;;;;;;;5075008;28;20194;-77
2021/10/23 07:04:14;;;;;;;41.38;21.42;;;;;;;;;;5074885;28;20203;-77
2021/10/23 07:06:43;;;;;;;41.95;21.45;;;;;;;;;;5075037;28;20219;-77
2021/10/23 07:09:10;;;;;;;44.33;22.83;;;;;;;;;;5075026;28;20237;-76
2021/10/23 07:11:37;;;;;;;27.55;20.30;;;;;;;;;;5074662;28;20231;-76
2021/10/23 07:14:05;;;;;;;32.08;22.13;;;;;;;;;;5074554;28;20282;-76
2021/10/23 07:16:32;;;;;;;24.50;15.55;;;;;;;;;;5074473;28;20292;-75
2021/10/23 07:19:00;;;;;;;39.70;19.95;;;;;;;;;;5074154;28;20645;-75
2021/10/23 07:21:27;;;;;;;39.58;21.70;;;;;;;;;;5074401;28;20290;-76
2021/10/23 07:23:58;;;;;;;39.90;22.75;;;;;;;;;;5074078;28;20296;-76
2021/10/23 07:26:25;;;;;;;35.20;21.02;;;;;;;;;;5074085;28;20191;-76
2021/10/23 07:28:57;;;;;;;33.33;18.52;;;;;;;;;;5074583;28;20307;-77
2021/10/23 07:31:25;;;;;;;39.47;22.25;;;;;;;;;;5074554;28;20187;-76
2021/10/23 07:33:52;;;;;;;32.45;21.05;;;;;;;;;;5074155;28;20196;-77
2021/10/23 07:36:19;;;;;;;39.03;22.08;;;;;;;;;;5074226;28;20197;-76
2021/10/23 07:38:48;;;;;;;37.33;21.30;;;;;;;;;;5079933;28;20287;-76
2021/10/23 07:41:17;;;;;;;32.25;21.00;;;;;;;;;;5094128;28;20193;-77
2021/10/23 07:43:44;;;;;;;29.73;20.10;;;;;;;;;;5093808;28;20282;-77
2021/10/23 07:46:11;;;;;;;29.33;18.63;;;;;;;;;;5094759;28;20191;-76
2021/10/23 07:48:38;;;;;;;29.02;20.27;;;;;;;;;;5094268;28;20289;-76
2021/10/23 07:51:06;;;;;;;24.55;19.05;;;;;;;;;;5093733;28;20713;-76
2021/10/23 07:53:33;;;;;;;34.67;22.25;;;;;;;;;;5094184;28;20617;-76
2021/10/23 07:56:06;;;;;;;27.50;19.20;;;;;;;;;;5093709;28;20195;-76
2021/10/23 07:58:35;;;;;;;30.38;21.70;;;;;;;;;;5094132;28;20277;-77
2021/10/23 08:01:03;;;;;;;27.83;18.40;;;;;;;;;;5093574;28;20260;-77
2021/10/23 08:03:30;;;;;;;29.25;19.23;;;;;;;;;;5093570;28;20573;-75
2021/10/23 08:05:57;;;;;;;30.38;20.90;;;;;;;;;;5093215;28;20204;-75
2021/10/23 08:08:25;;;;;;;32.22;21.65;;;;;;;;;;5092401;28;20270;-76
2021/10/23 08:10:52;;;;;;;26.88;19.40;;;;;;;;;;5093906;28;20223;-76
2021/10/23 08:13:19;;;;;;;28.55;20.08;;;;;;;;;;5093523;28;20231;-75
2021/10/23 08:15:48;;;;;;;36.58;21.23;;;;;;;;;;5093590;28;20197;-77
2021/10/23 08:18:16;;;;;;;28.35;20.98;;;;;;;;;;5094026;28;20192;-75
2021/10/23 08:20:43;;;;;;;33.63;22.50;;;;;;;;;;5093717;28;20300;-76
2021/10/23 08:23:11;;;;;;;37.22;23.73;;;;;;;;;;5093921;28;20207;-75
2021/10/23 08:25:38;;;;;;;28.17;19.83;;;;;;;;;;5093212;28;20200;-74
2021/10/23 08:28:06;;;;;;;33.20;21.17;;;;;;;;;;5093364;28;20668;-75
2021/10/23 08:30:33;;;;;;;26.17;19.88;;;;;;;;;;5093909;28;20212;-75
2021/10/23 08:33:02;;;;;;;29.25;20.30;;;;;;;;;;5093822;28;20224;-75
2021/10/23 08:35:30;;;;;;;27.83;19.25;;;;;;;;;;5093433;28;20286;-76
2021/10/23 08:37:58;;;;;;;31.77;20.55;;;;;;;;;;5093515;28;20225;-76
2021/10/23 08:40:27;;;;;;;23.90;20.23;;;;;;;;;;5093765;28;20204;-76
2021/10/23 08:42:54;;;;;;;33.78;20.40;;;;;;;;;;5093127;28;20204;-75
2021/10/23 08:45:22;;;;;;;25.48;20.13;;;;;;;;;;5093106;28;20280;-75
2021/10/23 08:47:49;;;;;;;25.52;20.05;;;;;;;;;;5092816;28;20206;-76
2021/10/23 08:50:18;;;;;;;26.88;18.95;;;;;;;;;;5093049;28;20220;-76
2021/10/23 08:52:46;;;;;;;32.30;18.65;;;;;;;;;;5093853;28;20280;-76
2021/10/23 08:55:14;;;;;;;28.40;19.80;;;;;;;;;;5094377;28;20242;-77
2021/10/23 08:57:41;;;;;;;26.00;17.73;;;;;;;;;;5093271;28;20235;-76
2021/10/23 09:00:09;;;;;;;22.38;18.58;;;;;;;;;;5093060;28;20657;-76
2021/10/23 09:02:36;;;;;;;25.40;17.33;;;;;;;;;;5093728;28;20289;-76
2021/10/23 09:05:03;;;;;;;24.08;17.92;;;;;;;;;;5092793;28;20268;-76
2021/10/23 09:07:33;;;;;;;25.88;18.30;;;;;;;;;;5092735;28;20327;-75
2021/10/23 09:10:01;;;;;;;28.95;18.92;;;;;;;;;;5092439;28;20586;-76
2021/10/23 09:12:29;;;;;;;32.08;18.38;;;;;;;;;;5092633;28;20207;-74
2021/10/23 09:15:01;;;;;;;22.10;16.47;;;;;;;;;;5093072;28;20554;-76
2021/10/23 09:17:28;;;;;;;19.88;16.35;;;;;;;;;;5092930;28;20450;-76
2021/10/23 09:19:57;;;;;;;21.45;17.13;;;;;;;;;;5094366;28;20288;-76
2021/10/23 09:22:29;;;;;;;19.65;15.85;;;;;;;;;;5097026;28;20262;-76
2021/10/23 09:25:10;;;;;;;22.50;15.48;;;;;;;;;;5097001;28;20232;-76
2021/10/23 09:27:46;;;;;;;19.70;14.90;;;;;;;;;;5097093;28;20269;-76
2021/10/23 09:30:13;;;;;;;19.37;15.60;;;;;;;;;;5096863;28;20463;-77
2021/10/23 09:32:40;;;;;;;18.00;13.27;;;;;;;;;;5097226;28;20439;-77
2021/10/23 09:35:11;;;;;;;19.15;14.73;;;;;;;;;;5096693;28;20533;-76
2021/10/23 09:37:39;;;;;;;18.13;14.07;;;;;;;;;;5096615;28;20211;-76
2021/10/23 09:40:07;;;;;;;23.83;13.07;;;;;;;;;;5096718;28;20223;-76
2021/10/23 09:42:35;;;;;;;18.00;13.13;;;;;;;;;;5096363;28;20435;-76
2021/10/23 09:45:04;;;;;;;15.60;12.20;;;;;;;;;;5096676;28;20451;-75
2021/10/23 09:47:33;;;;;;;18.73;13.23;;;;;;;;;;5096594;28;20197;-76
2021/10/23 09:50:09;;;;;;;19.70;13.70;;;;;;;;;;5096426;28;20470;-76
2021/10/23 09:52:36;;;;;;;16.83;12.30;;;;;;;;;;5096589;28;20462;-76
2021/10/23 09:55:08;;;;;;;16.13;12.77;;;;;;;;;;5096375;28;20446;-77
2021/10/23 09:57:37;;;;;;;16.17;10.93;;;;;;;;;;5096075;28;20467;-76
2021/10/23 10:00:06;;;;;;;18.60;12.10;;;;;;;;;;5096379;28;20258;-76
2021/10/23 10:02:33;;;;;;;17.90;11.57;;;;;;;;;;5096342;28;20440;-76
2021/10/23 10:05:01;;;;;;;18.43;12.10;;;;;;;;;;5095657;28;20442;-77
2021/10/23 10:07:28;;;;;;;12.57;11.17;;;;;;;;;;5095514;28;20486;-76
2021/10/23 10:09:55;;;;;;;15.60;12.63;;;;;;;;;;5096138;28;20861;-74
2021/10/23 10:12:22;;;;;;;14.57;12.87;;;;;;;;;;5095517;28;20443;-73
2021/10/23 10:14:52;;;;;;;15.67;12.27;;;;;;;;;;5095221;28;20461;-73
2021/10/23 10:17:20;;;;;;;13.40;11.23;;;;;;;;;;5095399;28;20775;-72
2021/10/23 10:19:47;;;;;;;18.97;12.03;;;;;;;;;;5095322;28;20522;-70
2021/10/23 10:22:15;;;;;;;14.77;11.37;;;;;;;;;;5095281;28;20984;-75
2021/10/23 10:24:42;;;;;;;12.37;10.50;;;;;;;;;;5095103;28;20479;-74
2021/10/23 10:27:11;;;;;;;15.27;10.80;;;;;;;;;;5094943;28;20452;-75
2021/10/23 10:29:49;;;;;;;16.87;10.20;;;;;;;;;;5094937;28;20500;-71
2021/10/23 10:32:20;;;;;;;15.73;10.77;;;;;;;;;;5094181;28;20457;-72
2021/10/23 10:35:23;;;;;;;17.43;11.00;;;;;;;;;;5095112;28;20431;-73
2021/10/23 10:43:31;;;;;;;15.20;10.20;;;;;;;;;;5093130;28;20428;-71
2021/10/23 10:46:02;;;;;;;14.47;10.83;;;;;;;;;;5094596;28;20958;-74
2021/10/23 10:48:41;;;;;;;12.60;9.17;;;;;;;;;;5094714;28;20523;-73
2021/10/23 10:51:16;;;;;;;12.77;9.90;;;;;;;;;;5094499;28;20463;-77
2021/10/23 10:53:45;;;;;;;16.37;10.03;;;;;;;;;;5094494;28;20530;-72
2021/10/23 10:56:13;;;;;;;14.43;10.30;;;;;;;;;;5094581;28;20508;-73
2021/10/23 10:58:41;;;;;;;16.40;12.27;;;;;;;;;;5094375;28;20524;-73
2021/10/23 11:01:15;;;;;;;21.57;12.97;;;;;;;;;;5094234;28;20811;-73
2021/10/23 11:03:45;;;;;;;13.20;11.47;;;;;;;;;;5094402;28;20420;-74
2021/10/23 11:06:31;;;;;;;12.00;10.40;;;;;;;;;;5093961;28;20993;-72
2021/10/23 11:09:17;;;;;;;15.50;11.20;;;;;;;;;;5094891;28;20518;-73
2021/10/23 11:11:59;;;;;;;18.67;10.80;;;;;;;;;;5092659;28;20497;-72
2021/10/23 11:14:34;;;;;;;16.20;11.10;;;;;;;;;;5093036;28;20445;-74
2021/10/23 11:17:16;;;;;;;15.73;11.43;;;;;;;;;;5094190;28;20435;-73
2021/10/23 11:19:45;;;;;;;11.77;10.23;;;;;;;;;;5093656;28;20912;-74
2021/10/23 11:22:13;;;;;;;15.77;11.37;;;;;;;;;;5093278;28;20532;-73
2021/10/23 11:24:41;;;;;;;13.50;10.03;;;;;;;;;;5093433;28;20933;-72
2021/10/23 11:27:08;;;;;;;13.40;10.17;;;;;;;;;;5093853;28;20804;-73
2021/10/23 11:29:37;;;;;;;13.60;9.50;;;;;;;;;;5094334;28;20781;-73
2021/10/23 11:32:04;;;;;;;12.43;10.00;;;;;;;;;;5093561;28;20480;-73
2021/10/23 11:34:32;;;;;;;14.50;9.10;;;;;;;;;;5093765;28;20522;-73
2021/10/23 11:37:01;;;;;;;17.70;9.17;;;;;;;;;;5093718;28;20435;-72
2021/10/23 11:39:31;;;;;;;20.93;8.63;;;;;;;;;;5093899;28;20480;-73
2021/10/23 11:42:13;;;;;;;11.63;8.40;;;;;;;;;;5093610;28;20542;-73
2021/10/23 11:44:40;;;;;;;13.03;6.50;;;;;;;;;;5075882;28;20519;-74
2021/10/23 11:47:08;;;;;;;11.40;6.27;;;;;;;;;;5073230;28;20437;-73
2021/10/23 11:49:36;;;;;;;11.77;6.73;;;;;;;;;;5073453;28;20631;-73
2021/10/23 11:52:07;;;;;;;9.07;4.33;;;;;;;;;;5073186;28;20503;-73
2021/10/23 11:54:43;;;;;;;9.70;4.00;;;;;;;;;;5073026;28;20421;-73
2021/10/23 11:57:10;;;;;;;7.23;4.50;;;;;;;;;;5072371;28;20424;-73
2021/10/23 11:59:38;;;;;;;9.57;4.07;;;;;;;;;;5072846;28;20478;-74
2021/10/23 12:02:13;;;;;;;9.60;4.40;;;;;;;;;;5072909;28;20444;-73
2021/10/23 12:04:41;;;;;;;7.10;3.33;;;;;;;;;;5073102;28;20524;-72
2021/10/23 12:07:09;;;;;;;7.63;3.40;;;;;;;;;;5072549;28;20447;-73
2021/10/23 12:09:36;;;;;;;6.97;3.17;;;;;;;;;;5072943;28;20431;-73
2021/10/23 12:12:04;;;;;;;10.20;3.10;;;;;;;;;;5072914;28;20564;-73
2021/10/23 12:14:33;;;;;;;6.33;2.57;;;;;;;;;;5071375;28;20464;-73
2021/10/23 12:17:00;;;;;;;13.10;3.33;;;;;;;;;;5073057;28;20460;-73
2021/10/23 12:19:34;;;;;;;6.27;2.97;;;;;;;;;;5084430;28;20451;-73
2021/10/23 12:22:08;;;;;;;5.00;2.63;;;;;;;;;;5092572;28;20426;-73
2021/10/23 12:24:38;;;;;;;4.70;2.80;;;;;;;;;;5092656;28;20452;-73
2021/10/23 12:27:20;;;;;;;10.47;3.00;;;;;;;;;;5092850;28;20450;-73
2021/10/23 12:29:48;;;;;;;4.93;2.97;;;;;;;;;;5093043;28;20447;-73
2021/10/23 12:32:16;;;;;;;9.20;2.77;;;;;;;;;;5092155;28;20511;-73
2021/10/23 12:35:00;;;;;;;10.10;3.60;;;;;;;;;;5092284;28;20855;-72
2021/10/23 12:37:50;;;;;;;5.27;2.07;;;;;;;;;;5093001;28;20493;-73
2021/10/23 12:40:25;;;;;;;4.87;2.73;;;;;;;;;;5087148;28;20458;-73
2021/10/23 12:42:54;;;;;;;4.83;2.63;;;;;;;;;;5092380;28;20440;-73
2021/10/23 12:45:22;;;;;;;7.63;2.80;;;;;;;;;;5080561;28;20467;-73
2021/10/23 12:47:50;;;;;;;8.00;2.60;;;;;;;;;;5072532;28;20546;-74
2021/10/23 12:50:20;;;;;;;5.63;2.90;;;;;;;;;;5072416;28;20532;-72
2021/10/23 12:52:48;;;;;;;4.30;1.93;;;;;;;;;;5073121;28;20468;-73
2021/10/23 12:55:15;;;;;;;7.53;2.37;;;;;;;;;;5074913;28;20477;-73
2021/10/23 12:57:44;;;;;;;5.37;2.60;;;;;;;;;;5076230;28;20844;-74
2021/10/23 13:00:12;;;;;;;4.90;1.70;;;;;;;;;;5076149;28;20960;-72
2021/10/23 13:02:39;;;;;;;8.13;1.60;;;;;;;;;;5076081;28;20860;-74
2021/10/23 13:05:06;;;;;;;4.60;2.10;;;;;;;;;;5076243;28;20970;-73
2021/10/23 13:07:35;;;;;;;4.77;2.30;;;;;;;;;;5075979;28;20476;-74
2021/10/23 13:10:02;;;;;;;5.37;2.53;;;;;;;;;;5075933;28;20923;-74
2021/10/23 13:12:29;;;;;;;2.97;2.10;;;;;;;;;;5075965;28;20572;-73
2021/10/23 13:14:58;;;;;;;10.03;2.37;;;;;;;;;;5075152;28;20439;-74
2021/10/23 13:17:25;;;;;;;7.93;2.80;;;;;;;;;;5075700;28;20474;-73
2021/10/23 13:19:52;;;;;;;8.27;3.47;;;;;;;;;;5075717;28;20458;-73
2021/10/23 13:22:19;;;;;;;8.93;2.43;;;;;;;;;;5075464;28;20949;-74
2021/10/23 13:24:46;;;;;;;2.67;2.07;;;;;;;;;;5075745;28;20444;-73
2021/10/23 13:27:14;;;;;;;5.57;3.13;;;;;;;;;;5076058;28;20447;-72
2021/10/23 13:29:41;;;;;;;6.67;2.80;;;;;;;;;;5076010;28;20781;-74
2021/10/23 13:32:10;;;;;;;5.70;2.20;;;;;;;;;;5075763;28;20472;-73
2021/10/23 13:34:37;;;;;;;10.63;4.90;;;;;;;;;;5075242;28;20535;-73
2021/10/23 13:37:04;;;;;;;12.63;2.80;;;;;;;;;;5075649;28;20520;-74
2021/10/23 13:39:31;;;;;;;6.90;2.60;;;;;;;;;;5075741;28;21001;-73
2021/10/23 13:41:58;;;;;;;7.40;3.57;;;;;;;;;;5075303;28;20549;-73
2021/10/23 13:44:26;;;;;;;6.23;3.07;;;;;;;;;;5075074;28;20447;-71
2021/10/23 13:46:53;;;;;;;5.50;2.47;;;;;;;;;;5074070;28;20503;-71
2021/10/23 13:49:21;;;;;;;4.83;2.20;;;;;;;;;;5075426;28;20444;-73
2021/10/23 13:51:49;;;;;;;6.63;2.70;;;;;;;;;;5075033;28;20567;-72
2021/10/23 13:54:16;;;;;;;5.93;2.97;;;;;;;;;;5074435;28;20617;-72
2021/10/23 13:56:43;;;;;;;3.43;2.57;;;;;;;;;;5074618;28;20858;-72
2021/10/23 13:59:11;;;;;;;5.20;2.47;;;;;;;;;;5075154;28;20524;-72
2021/10/23 14:01:38;;;;;;;9.00;2.30;;;;;;;;;;5074661;28;20536;-73
2021/10/23 14:04:05;;;;;;;8.37;2.70;;;;;;;;;;5075344;28;20994;-72
2021/10/23 14:06:34;;;;;;;11.80;2.00;;;;;;;;;;5073914;28;20437;-73
2021/10/23 14:09:01;;;;;;;7.70;1.90;;;;;;;;;;5075077;28;20481;-72
2021/10/23 14:11:28;;;;;;;5.20;2.40;;;;;;;;;;5074947;28;20481;-73
2021/10/23 14:13:55;;;;;;;5.13;2.20;;;;;;;;;;5074787;28;20449;-73
2021/10/23 14:16:23;;;;;;;5.80;2.43;;;;;;;;;;5073700;28;20510;-73
2021/10/23 14:18:50;;;;;;;4.40;2.00;;;;;;;;;;5074856;28;20441;-74
2021/10/23 14:21:17;;;;;;;4.67;2.13;;;;;;;;;;5074161;28;20457;-74
2021/10/23 14:23:46;;;;;;;5.90;2.47;;;;;;;;;;5074467;28;20532;-74
2021/10/23 14:26:17;;;;;;;5.60;2.10;;;;;;;;;;5074640;28;20545;-72
2021/10/23 14:28:45;;;;;;;11.93;2.60;;;;;;;;;;5074968;28;20431;-72
2021/10/23 14:31:12;;;;;;;4.80;2.50;;;;;;;;;;5074408;28;20461;-73
2021/10/23 14:33:40;;;;;;;6.87;2.80;;;;;;;;;;5074575;28;20448;-73
2021/10/23 14:36:07;;;;;;;4.97;2.47;;;;;;;;;;5074596;28;20448;-73